sensor_id;sensor_type;location;lat;lon;timestamp;temperature;humidity
2783;DHT22;1399;47.072;15.452;2024-02-21T00:02:19;11.30;43.60
2783;DHT22;1399;47.072;15.452;2024-02-21T00:04:45;11.20;43.60
2783;DHT22;1399;47.072;15.452;2024-02-21T00:07:11;11.20;43.60
2783;DHT22;1399;47.072;15.452;2024-02-21T00:09:37;11.20;43.70
2783;DHT22;1399;47.072;15.452;2024-02-21T00:12:03;11.20;43.70
2783;DHT22;1399;47.072;15.452;2024-02-21T00:14:31;11.20;43.70
2783;DHT22;1399;47.072;15.452;2024-02-21T00:16:57;11.20;43.80
2783;DHT22;1399;47.072;15.452;2024-02-21T00:19:23;11.10;43.70
2783;DHT22;1399;47.072;15.452;2024-02-21T00:21:49;11.20;43.80
2783;DHT22;1399;47.072;15.452;2024-02-21T00:24:15;11.10;43.80
2783;DHT22;1399;47.072;15.452;2024-02-21T00:26:41;11.10;43.80
2783;DHT22;1399;47.072;15.452;2024-02-21T00:29:07;11.10;43.80
2783;DHT22;1399;47.072;15.452;2024-02-21T00:31:33;11.10;43.70
2783;DHT22;1399;47.072;15.452;2024-02-21T00:33:59;11.10;43.80
2783;DHT22;1399;47.072;15.452;2024-02-21T00:36:26;11.10;43.80
2783;DHT22;1399;47.072;15.452;2024-02-21T00:38:52;11.10;43.80
2783;DHT22;1399;47.072;15.452;2024-02-21T00:41:18;11.10;43.80
2783;DHT22;1399;47.072;15.452;2024-02-21T00:43:44;11.10;43.80
2783;DHT22;1399;47.072;15.452;2024-02-21T00:46:09;11.00;43.70
2783;DHT22;1399;47.072;15.452;2024-02-21T00:48:35;11.10;43.80
2783;DHT22;1399;47.072;15.452;2024-02-21T00:51:01;11.00;43.60
2783;DHT22;1399;47.072;15.452;2024-02-21T00:53:27;11.00;43.60
2783;DHT22;1399;47.072;15.452;2024-02-21T00:55:53;11.00;43.70
2783;DHT22;1399;47.072;15.452;2024-02-21T00:58:19;11.00;43.60
2783;DHT22;1399;47.072;15.452;2024-02-21T01:00:45;11.00;43.60
2783;DHT22;1399;47.072;15.452;2024-02-21T01:03:10;11.00;43.60
2783;DHT22;1399;47.072;15.452;2024-02-21T01:05:37;11.00;43.50
2783;DHT22;1399;47.072;15.452;2024-02-21T01:08:03;11.00;43.50
2783;DHT22;1399;47.072;15.452;2024-02-21T01:10:29;11.00;43.50
2783;DHT22;1399;47.072;15.452;2024-02-21T01:12:55;11.00;43.50
2783;DHT22;1399;47.072;15.452;2024-02-21T01:15:22;11.00;43.60
2783;DHT22;1399;47.072;15.452;2024-02-21T01:17:47;11.00;43.50
2783;DHT22;1399;47.072;15.452;2024-02-21T01:20:15;11.00;43.50
2783;DHT22;1399;47.072;15.452;2024-02-21T01:22:41;11.00;43.60
2783;DHT22;1399;47.072;15.452;2024-02-21T01:25:07;11.00;43.60
2783;DHT22;1399;47.072;15.452;2024-02-21T01:27:33;11.00;43.60
2783;DHT22;1399;47.072;15.452;2024-02-21T01:29:59;11.00;43.60
2783;DHT22;1399;47.072;15.452;2024-02-21T01:32:25;11.00;43.60
2783;DHT22;1399;47.072;15.452;2024-02-21T01:34:51;11.00;43.60
2783;DHT22;1399;47.072;15.452;2024-02-21T01:37:17;11.00;43.60
2783;DHT22;1399;47.072;15.452;2024-02-21T01:39:43;11.10;43.60
2783;DHT22;1399;47.072;15.452;2024-02-21T01:42:09;11.10;43.60
2783;DHT22;1399;47.072;15.452;2024-02-21T01:44:35;11.00;43.60
2783;DHT22;1399;47.072;15.452;2024-02-21T01:47:03;11.10;43.70
2783;DHT22;1399;47.072;15.452;2024-02-21T01:49:28;11.10;43.70
2783;DHT22;1399;47.072;15.452;2024-02-21T01:51:54;11.10;43.70
2783;DHT22;1399;47.072;15.452;2024-02-21T01:54:21;11.10;43.80
2783;DHT22;1399;47.072;15.452;2024-02-21T01:56:47;11.10;43.80
2783;DHT22;1399;47.072;15.452;2024-02-21T01:59:15;11.10;43.90
2783;DHT22;1399;47.072;15.452;2024-02-21T02:01:42;11.10;43.90
2783;DHT22;1399;47.072;15.452;2024-02-21T02:04:09;11.10;43.90
2783;DHT22;1399;47.072;15.452;2024-02-21T02:06:35;11.10;43.90
2783;DHT22;1399;47.072;15.452;2024-02-21T02:09:01;11.10;43.90
2783;DHT22;1399;47.072;15.452;2024-02-21T02:11:27;11.10;44.00
2783;DHT22;1399;47.072;15.452;2024-02-21T02:13:54;11.10;44.00
2783;DHT22;1399;47.072;15.452;2024-02-21T02:16:20;11.10;44.10
2783;DHT22;1399;47.072;15.452;2024-02-21T02:18:46;11.10;44.20
2783;DHT22;1399;47.072;15.452;2024-02-21T02:21:49;11.10;44.20
2783;DHT22;1399;47.072;15.452;2024-02-21T02:24:08;11.10;44.30
2783;DHT22;1399;47.072;15.452;2024-02-21T02:26:34;11.10;44.30
2783;DHT22;1399;47.072;15.452;2024-02-21T02:29:01;11.10;44.50
2783;DHT22;1399;47.072;15.452;2024-02-21T02:31:27;11.10;44.30
2783;DHT22;1399;47.072;15.452;2024-02-21T02:33:53;11.10;44.40
2783;DHT22;1399;47.072;15.452;2024-02-21T02:36:19;11.10;44.40
2783;DHT22;1399;47.072;15.452;2024-02-21T02:38:45;11.10;44.40
2783;DHT22;1399;47.072;15.452;2024-02-21T02:41:11;11.10;44.50
2783;DHT22;1399;47.072;15.452;2024-02-21T02:43:37;11.10;44.50
2783;DHT22;1399;47.072;15.452;2024-02-21T02:46:03;11.10;44.50
2783;DHT22;1399;47.072;15.452;2024-02-21T02:48:30;11.20;44.70
2783;DHT22;1399;47.072;15.452;2024-02-21T02:50:55;11.20;44.70
2783;DHT22;1399;47.072;15.452;2024-02-21T02:53:21;11.20;44.70
2783;DHT22;1399;47.072;15.452;2024-02-21T02:55:47;11.20;44.80
2783;DHT22;1399;47.072;15.452;2024-02-21T02:58:13;11.20;44.80
2783;DHT22;1399;47.072;15.452;2024-02-21T03:00:39;11.20;44.80
2783;DHT22;1399;47.072;15.452;2024-02-21T03:03:05;11.20;45.40
2783;DHT22;1399;47.072;15.452;2024-02-21T03:05:31;11.20;44.80
2783;DHT22;1399;47.072;15.452;2024-02-21T03:07:57;11.20;44.80
2783;DHT22;1399;47.072;15.452;2024-02-21T03:10:23;11.20;44.80
2783;DHT22;1399;47.072;15.452;2024-02-21T03:12:49;11.20;44.80
2783;DHT22;1399;47.072;15.452;2024-02-21T03:15:15;11.20;44.90
2783;DHT22;1399;47.072;15.452;2024-02-21T03:17:42;11.20;44.90
2783;DHT22;1399;47.072;15.452;2024-02-21T03:20:08;11.20;45.00
2783;DHT22;1399;47.072;15.452;2024-02-21T03:22:37;11.20;45.00
2783;DHT22;1399;47.072;15.452;2024-02-21T03:25:04;11.20;44.90
2783;DHT22;1399;47.072;15.452;2024-02-21T03:27:30;11.20;45.00
2783;DHT22;1399;47.072;15.452;2024-02-21T03:29:57;11.20;45.00
2783;DHT22;1399;47.072;15.452;2024-02-21T03:32:23;11.20;45.00
2783;DHT22;1399;47.072;15.452;2024-02-21T03:34:49;11.30;45.10
2783;DHT22;1399;47.072;15.452;2024-02-21T03:37:15;11.30;45.10
2783;DHT22;1399;47.072;15.452;2024-02-21T03:39:41;11.20;45.10
2783;DHT22;1399;47.072;15.452;2024-02-21T03:42:07;11.30;45.10
2783;DHT22;1399;47.072;15.452;2024-02-21T03:44:33;11.30;45.10
2783;DHT22;1399;47.072;15.452;2024-02-21T03:46:59;11.20;45.00
2783;DHT22;1399;47.072;15.452;2024-02-21T03:49:26;11.20;44.90
2783;DHT22;1399;47.072;15.452;2024-02-21T03:51:51;11.20;44.90
2783;DHT22;1399;47.072;15.452;2024-02-21T03:54:18;11.30;45.10
2783;DHT22;1399;47.072;15.452;2024-02-21T03:56:44;11.20;45.10
2783;DHT22;1399;47.072;15.452;2024-02-21T03:59:10;11.20;45.00
2783;DHT22;1399;47.072;15.452;2024-02-21T04:01:36;11.20;45.00
2783;DHT22;1399;47.072;15.452;2024-02-21T04:04:02;11.30;45.00
2783;DHT22;1399;47.072;15.452;2024-02-21T04:06:28;11.30;44.90
2783;DHT22;1399;47.072;15.452;2024-02-21T04:08:54;11.20;44.70
2783;DHT22;1399;47.072;15.452;2024-02-21T04:11:21;11.30;44.80
2783;DHT22;1399;47.072;15.452;2024-02-21T04:13:47;11.20;44.60
2783;DHT22;1399;47.072;15.452;2024-02-21T04:16:15;11.20;44.50
2783;DHT22;1399;47.072;15.452;2024-02-21T04:18:41;11.20;44.50
2783;DHT22;1399;47.072;15.452;2024-02-21T04:21:08;11.20;44.50
2783;DHT22;1399;47.072;15.452;2024-02-21T04:23:34;11.20;44.40
2783;DHT22;1399;47.072;15.452;2024-02-21T04:26:00;11.20;44.40
2783;DHT22;1399;47.072;15.452;2024-02-21T04:28:26;11.20;44.40
2783;DHT22;1399;47.072;15.452;2024-02-21T04:30:52;11.20;44.30
2783;DHT22;1399;47.072;15.452;2024-02-21T04:33:18;11.20;44.30
2783;DHT22;1399;47.072;15.452;2024-02-21T04:35:44;11.20;44.40
2783;DHT22;1399;47.072;15.452;2024-02-21T04:38:10;11.20;44.40
2783;DHT22;1399;47.072;15.452;2024-02-21T04:40:36;11.10;44.40
2783;DHT22;1399;47.072;15.452;2024-02-21T04:43:02;11.10;44.50
2783;DHT22;1399;47.072;15.452;2024-02-21T04:45:28;11.10;44.50
2783;DHT22;1399;47.072;15.452;2024-02-21T04:47:54;11.10;44.60
2783;DHT22;1399;47.072;15.452;2024-02-21T04:50:20;11.10;44.70
2783;DHT22;1399;47.072;15.452;2024-02-21T04:52:45;11.10;44.80
2783;DHT22;1399;47.072;15.452;2024-02-21T04:55:12;11.10;44.80
2783;DHT22;1399;47.072;15.452;2024-02-21T04:57:37;11.10;45.50
2783;DHT22;1399;47.072;15.452;2024-02-21T05:00:04;11.10;44.90
2783;DHT22;1399;47.072;15.452;2024-02-21T05:02:29;11.10;44.90
2783;DHT22;1399;47.072;15.452;2024-02-21T05:04:56;11.10;45.00
2783;DHT22;1399;47.072;15.452;2024-02-21T05:07:22;11.10;45.10
2783;DHT22;1399;47.072;15.452;2024-02-21T05:09:48;11.10;45.20
2783;DHT22;1399;47.072;15.452;2024-02-21T05:12:14;11.10;45.20
2783;DHT22;1399;47.072;15.452;2024-02-21T05:14:40;11.10;45.20
2783;DHT22;1399;47.072;15.452;2024-02-21T05:17:06;11.10;45.20
2783;DHT22;1399;47.072;15.452;2024-02-21T05:19:32;11.10;45.20
2783;DHT22;1399;47.072;15.452;2024-02-21T05:21:59;11.10;45.20
2783;DHT22;1399;47.072;15.452;2024-02-21T05:24:25;11.10;45.20
2783;DHT22;1399;47.072;15.452;2024-02-21T05:26:53;11.10;45.30
2783;DHT22;1399;47.072;15.452;2024-02-21T05:29:19;11.10;45.30
2783;DHT22;1399;47.072;15.452;2024-02-21T05:34:17;11.10;45.40
2783;DHT22;1399;47.072;15.452;2024-02-21T05:36:43;11.10;45.50
2783;DHT22;1399;47.072;15.452;2024-02-21T05:39:09;11.10;45.40
2783;DHT22;1399;47.072;15.452;2024-02-21T05:41:36;11.10;45.50
2783;DHT22;1399;47.072;15.452;2024-02-21T05:44:01;11.00;45.40
2783;DHT22;1399;47.072;15.452;2024-02-21T05:46:27;11.00;45.50
2783;DHT22;1399;47.072;15.452;2024-02-21T05:48:53;11.00;45.50
2783;DHT22;1399;47.072;15.452;2024-02-21T05:51:19;11.00;45.60
2783;DHT22;1399;47.072;15.452;2024-02-21T05:53:45;11.00;45.70
2783;DHT22;1399;47.072;15.452;2024-02-21T05:56:11;11.00;45.70
2783;DHT22;1399;47.072;15.452;2024-02-21T05:58:37;11.00;46.10
2783;DHT22;1399;47.072;15.452;2024-02-21T06:01:03;11.00;45.80
2783;DHT22;1399;47.072;15.452;2024-02-21T06:03:30;11.00;45.80
2783;DHT22;1399;47.072;15.452;2024-02-21T06:05:56;11.00;45.80
2783;DHT22;1399;47.072;15.452;2024-02-21T06:08:21;11.00;45.90
2783;DHT22;1399;47.072;15.452;2024-02-21T06:10:47;11.00;45.90
2783;DHT22;1399;47.072;15.452;2024-02-21T06:13:23;11.00;45.90
2783;DHT22;1399;47.072;15.452;2024-02-21T06:15:49;11.00;45.90
2783;DHT22;1399;47.072;15.452;2024-02-21T06:18:19;11.00;45.90
2783;DHT22;1399;47.072;15.452;2024-02-21T06:20:45;11.00;45.80
2783;DHT22;1399;47.072;15.452;2024-02-21T06:23:16;11.00;45.80
2783;DHT22;1399;47.072;15.452;2024-02-21T06:25:42;11.00;45.80
2783;DHT22;1399;47.072;15.452;2024-02-21T06:28:08;11.00;45.80
2783;DHT22;1399;47.072;15.452;2024-02-21T06:30:35;11.00;45.80
2783;DHT22;1399;47.072;15.452;2024-02-21T06:33:01;11.00;45.80
2783;DHT22;1399;47.072;15.452;2024-02-21T06:35:28;11.00;45.70
2783;DHT22;1399;47.072;15.452;2024-02-21T06:37:54;11.10;45.80
2783;DHT22;1399;47.072;15.452;2024-02-21T06:40:21;11.10;45.70
2783;DHT22;1399;47.072;15.452;2024-02-21T06:42:47;11.10;45.70
2783;DHT22;1399;47.072;15.452;2024-02-21T06:45:14;11.10;45.70
2783;DHT22;1399;47.072;15.452;2024-02-21T06:47:40;11.10;45.70
2783;DHT22;1399;47.072;15.452;2024-02-21T06:50:06;11.10;45.70
2783;DHT22;1399;47.072;15.452;2024-02-21T06:52:32;11.10;45.60
2783;DHT22;1399;47.072;15.452;2024-02-21T06:54:57;11.20;45.60
2783;DHT22;1399;47.072;15.452;2024-02-21T06:57:23;11.20;45.50
2783;DHT22;1399;47.072;15.452;2024-02-21T06:59:49;11.20;45.40
2783;DHT22;1399;47.072;15.452;2024-02-21T07:02:15;11.20;45.30
2783;DHT22;1399;47.072;15.452;2024-02-21T07:04:41;11.30;45.30
2783;DHT22;1399;47.072;15.452;2024-02-21T07:07:06;11.30;45.20
2783;DHT22;1399;47.072;15.452;2024-02-21T07:09:32;11.30;45.10
2783;DHT22;1399;47.072;15.452;2024-02-21T07:11:59;11.30;44.90
2783;DHT22;1399;47.072;15.452;2024-02-21T07:14:25;11.40;44.80
2783;DHT22;1399;47.072;15.452;2024-02-21T07:16:51;11.40;44.70
2783;DHT22;1399;47.072;15.452;2024-02-21T07:19:17;11.40;44.60
2783;DHT22;1399;47.072;15.452;2024-02-21T07:21:43;11.50;44.60
2783;DHT22;1399;47.072;15.452;2024-02-21T07:24:09;11.50;44.50
2783;DHT22;1399;47.072;15.452;2024-02-21T07:26:35;11.50;44.60
2783;DHT22;1399;47.072;15.452;2024-02-21T07:29:01;11.50;44.60
2783;DHT22;1399;47.072;15.452;2024-02-21T07:31:26;11.50;44.60
2783;DHT22;1399;47.072;15.452;2024-02-21T07:33:52;11.50;44.60
2783;DHT22;1399;47.072;15.452;2024-02-21T07:36:28;11.50;44.70
2783;DHT22;1399;47.072;15.452;2024-02-21T07:38:55;11.60;44.70
2783;DHT22;1399;47.072;15.452;2024-02-21T07:41:21;11.60;44.70
2783;DHT22;1399;47.072;15.452;2024-02-21T07:43:46;11.60;44.70
2783;DHT22;1399;47.072;15.452;2024-02-21T07:46:14;11.60;44.70
2783;DHT22;1399;47.072;15.452;2024-02-21T07:48:40;11.60;44.70
2783;DHT22;1399;47.072;15.452;2024-02-21T07:51:06;11.70;44.70
2783;DHT22;1399;47.072;15.452;2024-02-21T07:53:31;11.70;44.60
2783;DHT22;1399;47.072;15.452;2024-02-21T07:55:57;11.80;44.60
2783;DHT22;1399;47.072;15.452;2024-02-21T07:58:23;11.80;44.50
2783;DHT22;1399;47.072;15.452;2024-02-21T08:00:49;11.80;44.50
2783;DHT22;1399;47.072;15.452;2024-02-21T08:03:14;11.80;44.30
2783;DHT22;1399;47.072;15.452;2024-02-21T08:05:43;11.90;44.40
2783;DHT22;1399;47.072;15.452;2024-02-21T08:08:09;11.90;44.40
2783;DHT22;1399;47.072;15.452;2024-02-21T08:10:35;11.90;44.20
2783;DHT22;1399;47.072;15.452;2024-02-21T08:13:01;11.90;44.20
2783;DHT22;1399;47.072;15.452;2024-02-21T08:15:27;12.00;44.20
2783;DHT22;1399;47.072;15.452;2024-02-21T08:17:58;12.00;44.10
2783;DHT22;1399;47.072;15.452;2024-02-21T08:20:27;12.00;44.00
2783;DHT22;1399;47.072;15.452;2024-02-21T08:22:53;12.00;43.90
2783;DHT22;1399;47.072;15.452;2024-02-21T08:25:19;12.10;43.80
2783;DHT22;1399;47.072;15.452;2024-02-21T08:27:44;12.10;43.60
2783;DHT22;1399;47.072;15.452;2024-02-21T08:30:11;12.10;43.60
2783;DHT22;1399;47.072;15.452;2024-02-21T08:32:37;12.10;43.50
2783;DHT22;1399;47.072;15.452;2024-02-21T08:35:03;12.10;43.30
2783;DHT22;1399;47.072;15.452;2024-02-21T08:37:30;12.10;43.20
2783;DHT22;1399;47.072;15.452;2024-02-21T08:39:56;12.10;43.10
2783;DHT22;1399;47.072;15.452;2024-02-21T08:42:22;12.10;43.10
2783;DHT22;1399;47.072;15.452;2024-02-21T08:44:48;12.10;43.10
2783;DHT22;1399;47.072;15.452;2024-02-21T08:47:13;12.20;43.10
2783;DHT22;1399;47.072;15.452;2024-02-21T08:49:39;12.20;43.00
2783;DHT22;1399;47.072;15.452;2024-02-21T08:52:05;12.20;43.20
2783;DHT22;1399;47.072;15.452;2024-02-21T08:54:31;12.20;43.10
2783;DHT22;1399;47.072;15.452;2024-02-21T08:57:00;12.20;43.10
2783;DHT22;1399;47.072;15.452;2024-02-21T08:59:26;12.20;43.00
2783;DHT22;1399;47.072;15.452;2024-02-21T09:01:53;12.20;42.90
2783;DHT22;1399;47.072;15.452;2024-02-21T09:04:19;12.30;43.00
2783;DHT22;1399;47.072;15.452;2024-02-21T09:06:45;12.30;43.10
2783;DHT22;1399;47.072;15.452;2024-02-21T09:09:12;12.30;43.00
2783;DHT22;1399;47.072;15.452;2024-02-21T09:11:38;12.30;42.80
2783;DHT22;1399;47.072;15.452;2024-02-21T09:14:05;12.40;42.70
2783;DHT22;1399;47.072;15.452;2024-02-21T09:16:32;12.40;42.40
2783;DHT22;1399;47.072;15.452;2024-02-21T09:18:58;12.50;42.20
2783;DHT22;1399;47.072;15.452;2024-02-21T09:21:23;12.50;42.30
2783;DHT22;1399;47.072;15.452;2024-02-21T09:23:49;12.50;42.10
2783;DHT22;1399;47.072;15.452;2024-02-21T09:26:15;12.60;42.00
2783;DHT22;1399;47.072;15.452;2024-02-21T09:28:42;12.60;42.00
2783;DHT22;1399;47.072;15.452;2024-02-21T09:31:08;12.70;42.00
2783;DHT22;1399;47.072;15.452;2024-02-21T09:33:34;12.70;41.80
2783;DHT22;1399;47.072;15.452;2024-02-21T09:35:59;12.80;41.80
2783;DHT22;1399;47.072;15.452;2024-02-21T09:38:25;12.80;41.70
2783;DHT22;1399;47.072;15.452;2024-02-21T09:41:03;12.90;41.80
2783;DHT22;1399;47.072;15.452;2024-02-21T09:43:30;12.90;41.80
2783;DHT22;1399;47.072;15.452;2024-02-21T09:45:58;13.00;41.60
2783;DHT22;1399;47.072;15.452;2024-02-21T09:51:15;13.10;41.70
2783;DHT22;1399;47.072;15.452;2024-02-21T09:53:43;13.10;41.60
2783;DHT22;1399;47.072;15.452;2024-02-21T09:56:10;13.20;41.60
2783;DHT22;1399;47.072;15.452;2024-02-21T09:58:36;13.20;41.60
2783;DHT22;1399;47.072;15.452;2024-02-21T10:01:03;13.20;41.40
2783;DHT22;1399;47.072;15.452;2024-02-21T10:03:32;13.20;41.00
2783;DHT22;1399;47.072;15.452;2024-02-21T10:05:59;13.30;40.90
2783;DHT22;1399;47.072;15.452;2024-02-21T10:08:26;13.30;40.90
2783;DHT22;1399;47.072;15.452;2024-02-21T10:10:52;13.30;40.90
2783;DHT22;1399;47.072;15.452;2024-02-21T10:13:29;13.40;40.80
2783;DHT22;1399;47.072;15.452;2024-02-21T10:16:06;13.40;40.70
2783;DHT22;1399;47.072;15.452;2024-02-21T10:18:35;13.50;40.80
2783;DHT22;1399;47.072;15.452;2024-02-21T10:21:03;13.40;40.70
2783;DHT22;1399;47.072;15.452;2024-02-21T10:23:29;13.50;40.60
2783;DHT22;1399;47.072;15.452;2024-02-21T10:26:05;13.50;40.30
2783;DHT22;1399;47.072;15.452;2024-02-21T10:28:31;13.50;40.20
2783;DHT22;1399;47.072;15.452;2024-02-21T10:30:57;13.50;40.30
2783;DHT22;1399;47.072;15.452;2024-02-21T10:33:22;13.50;40.40
2783;DHT22;1399;47.072;15.452;2024-02-21T10:35:50;13.50;40.20
2783;DHT22;1399;47.072;15.452;2024-02-21T10:38:17;13.50;40.10
2783;DHT22;1399;47.072;15.452;2024-02-21T10:40:43;13.50;40.00
2783;DHT22;1399;47.072;15.452;2024-02-21T10:43:12;13.50;40.00
2783;DHT22;1399;47.072;15.452;2024-02-21T10:45:41;13.50;40.00
2783;DHT22;1399;47.072;15.452;2024-02-21T10:48:15;13.60;40.10
2783;DHT22;1399;47.072;15.452;2024-02-21T10:53:44;13.60;40.10
2783;DHT22;1399;47.072;15.452;2024-02-21T10:56:34;13.60;40.10
2783;DHT22;1399;47.072;15.452;2024-02-21T10:59:04;13.60;40.00
2783;DHT22;1399;47.072;15.452;2024-02-21T11:01:31;13.60;40.10
2783;DHT22;1399;47.072;15.452;2024-02-21T11:04:02;13.60;40.10
2783;DHT22;1399;47.072;15.452;2024-02-21T11:06:29;13.60;40.00
2783;DHT22;1399;47.072;15.452;2024-02-21T11:09:05;13.60;40.10
2783;DHT22;1399;47.072;15.452;2024-02-21T11:11:39;13.60;40.10
2783;DHT22;1399;47.072;15.452;2024-02-21T11:14:09;13.60;39.90
2783;DHT22;1399;47.072;15.452;2024-02-21T11:16:40;13.60;39.90
2783;DHT22;1399;47.072;15.452;2024-02-21T11:19:22;13.60;39.70
2783;DHT22;1399;47.072;15.452;2024-02-21T11:21:48;13.60;39.60
2783;DHT22;1399;47.072;15.452;2024-02-21T11:24:14;13.60;39.60
2783;DHT22;1399;47.072;15.452;2024-02-21T11:26:50;13.60;39.80
2783;DHT22;1399;47.072;15.452;2024-02-21T11:29:23;13.60;40.00
2783;DHT22;1399;47.072;15.452;2024-02-21T11:31:50;13.60;40.40
2783;DHT22;1399;47.072;15.452;2024-02-21T11:34:20;13.60;40.40
2783;DHT22;1399;47.072;15.452;2024-02-21T11:36:52;13.70;40.50
2783;DHT22;1399;47.072;15.452;2024-02-21T11:39:27;13.70;40.50
2783;DHT22;1399;47.072;15.452;2024-02-21T11:42:06;13.70;40.50
2783;DHT22;1399;47.072;15.452;2024-02-21T11:44:37;13.70;40.50
2783;DHT22;1399;47.072;15.452;2024-02-21T11:47:08;13.80;40.50
2783;DHT22;1399;47.072;15.452;2024-02-21T11:49:47;13.80;40.40
2783;DHT22;1399;47.072;15.452;2024-02-21T11:52:15;13.90;40.50
2783;DHT22;1399;47.072;15.452;2024-02-21T11:54:44;14.00;40.70
2783;DHT22;1399;47.072;15.452;2024-02-21T11:57:10;14.00;40.70
2783;DHT22;1399;47.072;15.452;2024-02-21T11:59:37;14.10;40.70
2783;DHT22;1399;47.072;15.452;2024-02-21T12:02:03;14.10;40.60
2783;DHT22;1399;47.072;15.452;2024-02-21T12:04:29;14.20;40.70
2783;DHT22;1399;47.072;15.452;2024-02-21T12:06:58;14.20;40.60
2783;DHT22;1399;47.072;15.452;2024-02-21T12:09:25;14.20;40.50
2783;DHT22;1399;47.072;15.452;2024-02-21T12:12:20;14.30;40.40
2783;DHT22;1399;47.072;15.452;2024-02-21T12:14:46;14.30;40.30
2783;DHT22;1399;47.072;15.452;2024-02-21T12:17:12;14.30;40.10
2783;DHT22;1399;47.072;15.452;2024-02-21T12:19:38;14.40;40.10
2783;DHT22;1399;47.072;15.452;2024-02-21T12:22:04;14.40;40.10
2783;DHT22;1399;47.072;15.452;2024-02-21T12:24:34;14.40;40.20
2783;DHT22;1399;47.072;15.452;2024-02-21T12:27:01;14.50;40.10
2783;DHT22;1399;47.072;15.452;2024-02-21T12:29:29;14.50;40.00
2783;DHT22;1399;47.072;15.452;2024-02-21T12:31:56;14.50;40.10
2783;DHT22;1399;47.072;15.452;2024-02-21T12:34:23;14.60;40.20
2783;DHT22;1399;47.072;15.452;2024-02-21T12:36:49;14.60;40.20
2783;DHT22;1399;47.072;15.452;2024-02-21T12:39:15;14.60;40.20
2783;DHT22;1399;47.072;15.452;2024-02-21T12:41:42;14.60;40.20
2783;DHT22;1399;47.072;15.452;2024-02-21T12:44:10;14.60;40.30
2783;DHT22;1399;47.072;15.452;2024-02-21T12:46:39;14.60;40.40
2783;DHT22;1399;47.072;15.452;2024-02-21T12:49:05;14.60;40.40
2783;DHT22;1399;47.072;15.452;2024-02-21T12:51:33;14.50;40.30
2783;DHT22;1399;47.072;15.452;2024-02-21T12:53:59;14.50;40.90
2783;DHT22;1399;47.072;15.452;2024-02-21T12:56:25;14.50;40.40
2783;DHT22;1399;47.072;15.452;2024-02-21T12:58:55;14.50;40.40
2783;DHT22;1399;47.072;15.452;2024-02-21T13:01:21;14.50;40.20
2783;DHT22;1399;47.072;15.452;2024-02-21T13:03:47;14.50;40.40
2783;DHT22;1399;47.072;15.452;2024-02-21T13:06:13;14.50;40.50
2783;DHT22;1399;47.072;15.452;2024-02-21T13:08:39;14.50;40.90
2783;DHT22;1399;47.072;15.452;2024-02-21T13:11:06;14.50;40.70
2783;DHT22;1399;47.072;15.452;2024-02-21T13:13:32;14.50;40.60
2783;DHT22;1399;47.072;15.452;2024-02-21T13:15:59;14.50;40.50
2783;DHT22;1399;47.072;15.452;2024-02-21T13:18:24;14.50;40.40
2783;DHT22;1399;47.072;15.452;2024-02-21T13:20:50;14.50;40.50
2783;DHT22;1399;47.072;15.452;2024-02-21T13:23:16;14.50;40.60
2783;DHT22;1399;47.072;15.452;2024-02-21T13:25:42;14.60;40.80
2783;DHT22;1399;47.072;15.452;2024-02-21T13:28:07;14.60;40.90
2783;DHT22;1399;47.072;15.452;2024-02-21T13:30:35;14.70;40.90
2783;DHT22;1399;47.072;15.452;2024-02-21T13:33:01;14.70;40.80
2783;DHT22;1399;47.072;15.452;2024-02-21T13:35:29;14.70;40.60
2783;DHT22;1399;47.072;15.452;2024-02-21T13:37:54;14.70;40.50
2783;DHT22;1399;47.072;15.452;2024-02-21T13:40:20;14.70;40.40
2783;DHT22;1399;47.072;15.452;2024-02-21T13:42:46;14.80;40.30
2783;DHT22;1399;47.072;15.452;2024-02-21T13:45:11;14.80;40.30
2783;DHT22;1399;47.072;15.452;2024-02-21T13:47:37;14.80;40.30
2783;DHT22;1399;47.072;15.452;2024-02-21T13:50:05;14.80;40.40
2783;DHT22;1399;47.072;15.452;2024-02-21T13:52:31;14.80;40.70
2783;DHT22;1399;47.072;15.452;2024-02-21T13:54:59;14.90;40.80
2783;DHT22;1399;47.072;15.452;2024-02-21T13:57:25;14.90;40.60
2783;DHT22;1399;47.072;15.452;2024-02-21T13:59:50;14.90;40.40
2783;DHT22;1399;47.072;15.452;2024-02-21T14:02:16;14.90;40.30
2783;DHT22;1399;47.072;15.452;2024-02-21T14:04:42;14.90;40.20
2783;DHT22;1399;47.072;15.452;2024-02-21T14:07:08;14.90;40.20
2783;DHT22;1399;47.072;15.452;2024-02-21T14:09:34;14.90;40.00
2783;DHT22;1399;47.072;15.452;2024-02-21T14:12:00;14.90;39.90
2783;DHT22;1399;47.072;15.452;2024-02-21T14:14:26;14.90;39.80
2783;DHT22;1399;47.072;15.452;2024-02-21T14:16:51;14.90;40.40
2783;DHT22;1399;47.072;15.452;2024-02-21T14:19:17;14.90;39.80
2783;DHT22;1399;47.072;15.452;2024-02-21T14:21:44;14.90;39.90
2783;DHT22;1399;47.072;15.452;2024-02-21T14:24:11;14.90;39.90
2783;DHT22;1399;47.072;15.452;2024-02-21T14:26:38;14.90;39.80
2783;DHT22;1399;47.072;15.452;2024-02-21T14:29:04;14.90;39.80
2783;DHT22;1399;47.072;15.452;2024-02-21T14:31:33;14.90;39.80
2783;DHT22;1399;47.072;15.452;2024-02-21T14:33:59;14.90;39.80
2783;DHT22;1399;47.072;15.452;2024-02-21T14:36:26;14.90;39.70
2783;DHT22;1399;47.072;15.452;2024-02-21T14:38:52;14.90;39.70
2783;DHT22;1399;47.072;15.452;2024-02-21T14:41:18;14.90;39.60
2783;DHT22;1399;47.072;15.452;2024-02-21T14:43:45;14.90;39.60
2783;DHT22;1399;47.072;15.452;2024-02-21T14:46:12;14.90;40.30
2783;DHT22;1399;47.072;15.452;2024-02-21T14:48:38;14.90;39.60
2783;DHT22;1399;47.072;15.452;2024-02-21T14:51:04;14.90;39.50
2783;DHT22;1399;47.072;15.452;2024-02-21T14:53:30;15.00;39.50
2783;DHT22;1399;47.072;15.452;2024-02-21T14:55:56;15.00;39.40
2783;DHT22;1399;47.072;15.452;2024-02-21T14:58:23;15.00;39.30
2783;DHT22;1399;47.072;15.452;2024-02-21T15:00:49;15.00;39.30
2783;DHT22;1399;47.072;15.452;2024-02-21T15:03:18;15.00;39.20
2783;DHT22;1399;47.072;15.452;2024-02-21T15:05:47;15.00;39.20
2783;DHT22;1399;47.072;15.452;2024-02-21T15:08:13;15.00;39.10
2783;DHT22;1399;47.072;15.452;2024-02-21T15:10:43;15.00;39.00
2783;DHT22;1399;47.072;15.452;2024-02-21T15:13:08;15.00;38.90
2783;DHT22;1399;47.072;15.452;2024-02-21T15:15:34;15.00;39.00
2783;DHT22;1399;47.072;15.452;2024-02-21T15:18:00;15.00;38.90
2783;DHT22;1399;47.072;15.452;2024-02-21T15:20:26;15.00;38.90
2783;DHT22;1399;47.072;15.452;2024-02-21T15:22:53;14.90;38.70
2783;DHT22;1399;47.072;15.452;2024-02-21T15:25:19;14.90;38.60
2783;DHT22;1399;47.072;15.452;2024-02-21T15:27:45;14.90;38.60
2783;DHT22;1399;47.072;15.452;2024-02-21T15:30:12;14.90;38.50
2783;DHT22;1399;47.072;15.452;2024-02-21T15:32:41;14.90;38.50
2783;DHT22;1399;47.072;15.452;2024-02-21T15:35:10;14.90;38.40
2783;DHT22;1399;47.072;15.452;2024-02-21T15:37:39;14.90;38.40
2783;DHT22;1399;47.072;15.452;2024-02-21T15:40:06;14.80;38.20
2783;DHT22;1399;47.072;15.452;2024-02-21T15:42:35;14.80;38.20
2783;DHT22;1399;47.072;15.452;2024-02-21T15:45:01;14.80;38.20
2783;DHT22;1399;47.072;15.452;2024-02-21T15:47:30;14.80;38.20
2783;DHT22;1399;47.072;15.452;2024-02-21T15:49:57;14.80;38.20
2783;DHT22;1399;47.072;15.452;2024-02-21T15:52:24;14.70;38.00